createdAt,value
2023-05-23T00:01:47.328Z,20.13
2023-05-23T00:04:20.677Z,16.95
2023-05-23T00:06:52.206Z,16.67
2023-05-23T00:09:22.412Z,19.15
2023-05-23T00:11:52.174Z,17.58
2023-05-23T00:14:22.614Z,18.20
2023-05-23T00:16:53.498Z,18.10
2023-05-23T00:19:23.698Z,17.02
2023-05-23T00:21:55.454Z,16.75
2023-05-23T00:24:25.278Z,15.07
2023-05-23T00:26:54.965Z,15.15
2023-05-23T00:29:24.892Z,14.90
2023-05-23T00:31:54.907Z,12.90
2023-05-23T00:34:24.834Z,12.18
2023-05-23T00:36:56.138Z,13.30
2023-05-23T00:39:26.116Z,12.57
2023-05-23T00:41:55.933Z,12.70
2023-05-23T00:44:25.680Z,12.65
2023-05-23T00:46:58.896Z,11.90
2023-05-23T00:49:29.846Z,13.52
2023-05-23T00:51:59.695Z,13.30
2023-05-23T00:54:33.296Z,13.13
2023-05-23T00:57:03.284Z,12.93
2023-05-23T00:59:33.352Z,12.98
2023-05-23T01:02:04.046Z,12.75
2023-05-23T01:04:35.903Z,12.35
2023-05-23T01:07:05.934Z,12.02
2023-05-23T01:09:35.876Z,12.45
2023-05-23T01:12:36.937Z,12.82
2023-05-23T01:15:14.666Z,11.68
2023-05-23T01:18:10.043Z,11.75
2023-05-23T01:20:57.910Z,12.10
2023-05-23T01:24:06.924Z,13.07
2023-05-23T01:27:07.432Z,12.40
2023-05-23T01:29:44.526Z,11.90
2023-05-23T01:32:18.121Z,12.10
2023-05-23T01:34:49.366Z,13.13
2023-05-23T01:37:21.404Z,13.35
2023-05-23T01:39:51.270Z,12.30
2023-05-23T01:42:21.327Z,12.77
2023-05-23T01:44:51.321Z,12.10
2023-05-23T01:47:21.643Z,12.20
2023-05-23T01:49:52.432Z,12.70
2023-05-23T01:52:23.690Z,12.65
2023-05-23T01:54:55.033Z,12.10
2023-05-23T01:57:26.648Z,12.73
2023-05-23T01:59:56.497Z,12.38
2023-05-23T02:02:26.376Z,12.38
2023-05-23T02:04:56.260Z,12.20
2023-05-23T02:07:26.089Z,11.65
2023-05-23T02:09:55.775Z,12.23
2023-05-23T02:12:25.592Z,11.65
2023-05-23T02:14:57.087Z,11.55
2023-05-23T02:17:27.175Z,11.68
2023-05-23T02:19:58.584Z,11.70
2023-05-23T02:22:28.446Z,12.70
2023-05-23T02:24:58.219Z,11.18
2023-05-23T02:27:28.120Z,11.07
2023-05-23T02:29:57.967Z,11.95
2023-05-23T02:32:27.973Z,12.05
2023-05-23T02:34:57.953Z,11.32
2023-05-23T02:37:27.632Z,11.18
2023-05-23T02:39:58.231Z,11.73
2023-05-23T02:42:27.976Z,11.43
2023-05-23T02:44:57.855Z,11.18
2023-05-23T02:47:27.560Z,11.90
2023-05-23T02:49:57.537Z,10.95
2023-05-23T02:52:28.033Z,11.15
2023-05-23T02:54:57.884Z,11.50
2023-05-23T02:57:27.978Z,11.20
2023-05-23T02:59:57.668Z,11.82
2023-05-23T03:02:27.701Z,10.88
2023-05-23T03:04:59.140Z,11.50
2023-05-23T03:07:29.056Z,10.60
2023-05-23T03:09:59.256Z,10.70
2023-05-23T03:12:30.940Z,10.70
2023-05-23T03:15:00.684Z,10.90
2023-05-23T03:17:30.854Z,11.00
2023-05-23T03:20:01.418Z,10.55
2023-05-23T03:22:31.061Z,11.73
2023-05-23T03:25:00.900Z,10.82
2023-05-23T03:27:30.702Z,11.52
2023-05-23T03:30:00.535Z,10.73
2023-05-23T03:32:30.292Z,11.80
2023-05-23T03:35:00.145Z,11.43
2023-05-23T03:37:30.116Z,12.30
2023-05-23T03:39:59.763Z,11.05
2023-05-23T03:42:31.064Z,11.52
2023-05-23T03:45:00.894Z,11.60
2023-05-23T03:47:30.782Z,12.30
2023-05-23T03:50:03.018Z,11.93
2023-05-23T03:52:32.921Z,12.00
2023-05-23T03:55:02.763Z,12.52
2023-05-23T03:57:32.648Z,11.65
2023-05-23T04:00:02.412Z,11.07
2023-05-23T04:02:33.201Z,10.82
2023-05-23T04:05:03.328Z,11.70
2023-05-23T04:07:36.209Z,11.43
2023-05-23T04:10:06.809Z,10.98
2023-05-23T04:12:37.236Z,10.98
2023-05-23T04:15:07.460Z,10.65
2023-05-23T04:17:37.216Z,11.48
2023-05-23T04:20:11.579Z,11.23
2023-05-23T04:22:41.553Z,10.73
2023-05-23T04:25:11.890Z,11.90
2023-05-23T04:27:42.049Z,10.73
2023-05-23T04:30:12.309Z,11.63
2023-05-23T04:32:42.742Z,11.32
2023-05-23T04:35:14.276Z,11.70
2023-05-23T04:37:44.596Z,11.60
2023-05-23T04:40:15.190Z,12.75
2023-05-23T04:42:46.356Z,12.65
2023-05-23T04:45:16.195Z,12.02
2023-05-23T04:47:46.842Z,11.52
2023-05-23T04:50:17.300Z,11.32
2023-05-23T04:52:47.073Z,11.45
2023-05-23T04:55:17.090Z,12.18
2023-05-23T04:57:46.796Z,11.98
2023-05-23T05:00:17.264Z,11.55
2023-05-23T05:02:47.024Z,10.52
2023-05-23T05:05:16.761Z,12.32
2023-05-23T05:07:46.494Z,11.98
2023-05-23T05:10:18.708Z,11.95
2023-05-23T05:12:51.356Z,12.38
2023-05-23T05:15:21.641Z,11.55
2023-05-23T05:17:51.766Z,11.75
2023-05-23T05:20:23.592Z,11.20
2023-05-23T05:22:59.647Z,11.80
2023-05-23T05:25:33.746Z,11.30
2023-05-23T05:28:07.692Z,11.32
2023-05-23T05:30:37.721Z,11.13
2023-05-23T05:33:09.385Z,12.00
2023-05-23T05:35:40.254Z,12.57
2023-05-23T05:38:10.140Z,11.95
2023-05-23T05:40:40.229Z,11.68
2023-05-23T05:43:10.232Z,11.90
2023-05-23T05:45:40.032Z,11.95
2023-05-23T05:48:09.976Z,11.60
2023-05-23T05:50:39.960Z,11.55
2023-05-23T05:53:10.399Z,11.70
2023-05-23T05:55:40.208Z,12.70
2023-05-23T05:58:10.265Z,11.90
2023-05-23T06:00:43.830Z,11.63
2023-05-23T06:03:14.770Z,11.77
2023-05-23T06:05:44.986Z,11.93
2023-05-23T06:08:14.823Z,11.23
2023-05-23T06:10:44.613Z,11.32
2023-05-23T06:13:14.413Z,12.10
2023-05-23T06:15:44.194Z,12.18
2023-05-23T06:18:14.303Z,11.55
2023-05-23T06:20:44.984Z,11.55
2023-05-23T06:23:14.752Z,11.85
2023-05-23T06:25:44.572Z,10.50
2023-05-23T06:28:14.299Z,12.25
2023-05-23T06:30:44.392Z,11.20
2023-05-23T06:33:14.878Z,11.38
2023-05-23T06:35:45.000Z,10.05
2023-05-23T06:38:16.411Z,12.63
2023-05-23T06:40:47.503Z,11.32
2023-05-23T06:43:17.275Z,11.23
2023-05-23T06:45:52.304Z,11.05
2023-05-23T06:48:22.142Z,11.02
2023-05-23T06:50:53.317Z,11.73
2023-05-23T06:53:23.276Z,11.70
2023-05-23T06:55:53.024Z,10.57
2023-05-23T06:58:26.894Z,11.00
2023-05-23T07:00:56.676Z,10.52
2023-05-23T07:03:26.610Z,12.63
2023-05-23T07:05:56.477Z,12.07
2023-05-23T07:08:26.454Z,11.80
2023-05-23T07:10:56.190Z,12.48
2023-05-23T07:13:25.925Z,12.05
2023-05-23T07:15:55.728Z,11.70
2023-05-23T07:18:26.814Z,11.70
2023-05-23T07:20:57.402Z,11.60
2023-05-23T07:23:27.809Z,11.18
2023-05-23T07:26:02.670Z,10.43
2023-05-23T07:28:33.105Z,10.88
2023-05-23T07:31:03.278Z,11.45
2023-05-23T07:33:35.353Z,10.80
2023-05-23T07:36:05.282Z,10.23
2023-05-23T07:38:35.318Z,10.52
2023-05-23T07:41:11.547Z,11.32
2023-05-23T07:43:42.731Z,11.00
2023-05-23T07:46:12.737Z,9.88
2023-05-23T07:48:43.044Z,11.57
2023-05-23T07:51:12.846Z,11.88
2023-05-23T07:53:42.946Z,11.05
2023-05-23T07:56:15.400Z,10.48
2023-05-23T07:58:45.074Z,10.75
2023-05-23T08:01:14.999Z,13.05
2023-05-23T08:03:44.885Z,10.57
2023-05-23T08:06:14.874Z,12.50
2023-05-23T08:08:45.521Z,11.02
2023-05-23T08:11:16.680Z,10.32
2023-05-23T08:13:46.823Z,11.13
2023-05-23T08:16:16.706Z,10.20
2023-05-23T08:18:46.859Z,11.18
2023-05-23T08:21:17.463Z,10.80
2023-05-23T08:23:47.309Z,29.33
2023-05-23T08:26:17.354Z,11.63
2023-05-23T08:28:47.133Z,11.15
2023-05-23T08:31:17.082Z,11.68
2023-05-23T08:33:47.089Z,11.27
2023-05-23T08:36:16.889Z,11.25
2023-05-23T08:38:46.610Z,10.38
2023-05-23T08:41:22.308Z,10.40
2023-05-23T08:43:52.432Z,9.10
2023-05-23T08:46:22.303Z,10.15
2023-05-23T08:48:56.534Z,12.07
2023-05-23T08:51:28.914Z,12.30
2023-05-23T08:54:00.160Z,11.82
2023-05-23T08:56:30.388Z,10.75
2023-05-23T08:59:01.118Z,10.68
2023-05-23T09:01:32.586Z,12.10
2023-05-23T09:04:06.717Z,9.10
2023-05-23T09:06:37.013Z,10.05
2023-05-23T09:09:06.945Z,10.32
2023-05-23T09:11:36.887Z,9.52
2023-05-23T09:14:06.936Z,9.73
2023-05-23T09:16:37.463Z,12.77
2023-05-23T09:19:16.337Z,11.55
2023-05-23T09:21:47.634Z,9.73
2023-05-23T09:24:17.499Z,9.25
2023-05-23T09:26:50.192Z,9.85
2023-05-23T09:29:23.179Z,9.95
2023-05-23T09:31:52.950Z,9.65
2023-05-23T09:34:22.710Z,10.93
2023-05-23T09:36:52.942Z,10.98
2023-05-23T09:39:23.080Z,9.77
2023-05-23T09:41:53.028Z,9.90
2023-05-23T09:44:26.133Z,10.55
2023-05-23T09:46:56.221Z,15.73
2023-05-23T09:49:26.123Z,16.30
2023-05-23T09:52:03.257Z,11.32
2023-05-23T09:54:33.145Z,15.23
2023-05-23T09:57:05.282Z,15.45
2023-05-23T09:59:39.732Z,12.93
2023-05-23T10:02:13.561Z,13.20
2023-05-23T10:04:44.939Z,10.85
2023-05-23T10:07:20.172Z,10.48
2023-05-23T10:10:01.698Z,10.45
2023-05-23T10:12:53.811Z,14.23
2023-05-23T10:15:26.605Z,12.38
2023-05-23T10:18:21.453Z,11.27
2023-05-23T10:20:54.637Z,9.10
2023-05-23T10:23:24.738Z,10.50
2023-05-23T10:25:54.539Z,10.10
2023-05-23T10:28:24.704Z,10.85
2023-05-23T10:30:54.634Z,9.80
2023-05-23T10:33:24.865Z,10.07
2023-05-23T10:36:17.126Z,8.90
2023-05-23T10:39:04.278Z,9.48
2023-05-23T10:41:51.047Z,9.38
2023-05-23T10:44:33.267Z,8.77
2023-05-23T10:47:04.396Z,9.70
2023-05-23T10:49:54.145Z,8.20
2023-05-23T10:52:28.747Z,9.23
2023-05-23T10:54:58.765Z,8.75
2023-05-23T10:57:32.263Z,13.32
2023-05-23T11:00:02.201Z,15.13
2023-05-23T11:02:32.240Z,12.38
2023-05-23T11:05:25.071Z,11.25
2023-05-23T11:08:19.656Z,10.88
2023-05-23T11:11:09.064Z,10.15
2023-05-23T11:14:01.692Z,9.57
2023-05-23T11:16:33.772Z,8.73
2023-05-23T11:19:27.093Z,8.18
2023-05-23T11:22:05.493Z,11.98
2023-05-23T11:24:56.655Z,12.32
2023-05-23T11:27:37.647Z,10.38
2023-05-23T11:30:16.813Z,9.13
2023-05-23T11:32:54.695Z,8.38
2023-05-23T11:35:24.747Z,8.40
2023-05-23T11:37:54.689Z,8.52
2023-05-23T11:40:35.711Z,8.52
2023-05-23T11:43:09.078Z,8.80
2023-05-23T11:45:40.382Z,8.95
2023-05-23T11:48:18.646Z,7.95
2023-05-23T11:50:53.606Z,7.63
2023-05-23T11:53:27.013Z,7.60
2023-05-23T11:56:01.995Z,8.35
2023-05-23T11:58:36.247Z,8.55
2023-05-23T12:01:09.160Z,8.45
2023-05-23T12:03:49.188Z,7.97
2023-05-23T12:06:23.569Z,7.85
2023-05-23T12:08:55.043Z,7.93
2023-05-23T12:11:27.530Z,8.23
2023-05-23T12:13:57.551Z,7.78
2023-05-23T12:16:27.477Z,7.10
2023-05-23T12:18:58.115Z,7.95
2023-05-23T12:21:44.200Z,7.68
2023-05-23T12:24:25.344Z,8.18
2023-05-23T12:27:01.385Z,7.80
2023-05-23T12:29:34.987Z,7.47
2023-05-23T12:32:06.668Z,7.85
2023-05-23T12:34:36.572Z,8.50
2023-05-23T12:37:18.796Z,8.32
2023-05-23T12:39:49.192Z,9.70
2023-05-23T12:42:19.108Z,14.38
2023-05-23T12:44:51.791Z,10.50
2023-05-23T12:47:22.502Z,11.48
2023-05-23T12:49:52.698Z,10.45
2023-05-23T12:52:22.808Z,9.70
2023-05-23T12:54:52.880Z,10.98
2023-05-23T12:57:22.647Z,8.57
2023-05-23T12:59:52.516Z,10.63
2023-05-23T13:02:22.441Z,9.25
2023-05-23T13:04:52.377Z,9.27
2023-05-23T13:07:22.273Z,8.68
2023-05-23T13:09:52.211Z,7.82
2023-05-23T13:12:22.667Z,8.15
2023-05-23T13:14:53.242Z,7.45
2023-05-23T13:17:23.520Z,7.22
2023-05-23T13:19:53.350Z,6.57
2023-05-23T13:22:23.213Z,6.00
2023-05-23T13:24:53.432Z,6.70
2023-05-23T13:27:23.804Z,6.53
2023-05-23T13:29:53.702Z,6.75
2023-05-23T13:32:23.434Z,6.85
2023-05-23T13:34:53.391Z,7.50
2023-05-23T13:37:23.185Z,7.53
2023-05-23T13:39:53.246Z,7.32
2023-05-23T13:42:23.109Z,7.50
2023-05-23T13:44:53.109Z,6.75
2023-05-23T13:47:23.474Z,6.68
2023-05-23T13:49:53.342Z,6.63
2023-05-23T13:52:23.303Z,7.53
2023-05-23T13:54:53.727Z,6.97
2023-05-23T13:57:24.039Z,6.80
2023-05-23T13:59:53.809Z,6.38
2023-05-23T14:02:24.424Z,6.15
2023-05-23T14:04:54.406Z,5.32
2023-05-23T14:07:24.192Z,4.20
2023-05-23T14:09:53.928Z,4.22
2023-05-23T14:12:23.659Z,3.20
2023-05-23T14:14:53.512Z,2.55
2023-05-23T14:17:23.397Z,2.90
2023-05-23T14:19:53.350Z,2.53
2023-05-23T14:22:23.190Z,2.53
2023-05-23T14:24:52.932Z,2.80
2023-05-23T14:27:22.990Z,2.85
2023-05-23T14:29:52.808Z,3.60
2023-05-23T14:32:22.724Z,4.10
2023-05-23T14:34:52.554Z,3.88
2023-05-23T14:37:22.319Z,4.18
2023-05-23T14:39:52.085Z,3.90
2023-05-23T14:42:21.821Z,3.25
2023-05-23T14:44:51.420Z,3.85
2023-05-23T14:47:21.382Z,3.47
2023-05-23T14:49:51.177Z,3.67
2023-05-23T14:52:20.885Z,3.30
2023-05-23T14:54:50.623Z,3.00
2023-05-23T14:57:20.430Z,3.25
2023-05-23T14:59:50.336Z,3.78
2023-05-23T15:02:20.434Z,2.90
2023-05-23T15:04:50.376Z,2.92
2023-05-23T15:07:20.266Z,3.35
2023-05-23T15:09:50.043Z,3.58
2023-05-23T15:12:19.824Z,3.72
2023-05-23T15:14:49.619Z,3.97
2023-05-23T15:17:25.875Z,3.63
2023-05-23T15:19:57.287Z,3.40
2023-05-23T15:22:36.378Z,3.58
2023-05-23T15:25:09.394Z,2.85
2023-05-23T15:27:39.403Z,2.95
2023-05-23T15:30:10.000Z,2.67
2023-05-23T15:32:39.879Z,2.47
2023-05-23T15:35:09.944Z,3.42
2023-05-23T15:37:40.143Z,1.55
2023-05-23T15:40:10.808Z,1.98
2023-05-23T15:42:40.729Z,1.77
2023-05-23T15:45:12.460Z,1.58
2023-05-23T15:47:42.307Z,1.80
2023-05-23T15:50:14.257Z,1.80
2023-05-23T15:52:44.068Z,1.90
2023-05-23T15:55:13.900Z,2.10
2023-05-23T15:57:43.562Z,1.85
2023-05-23T16:00:14.027Z,1.98
2023-05-23T16:02:44.004Z,2.25
2023-05-23T16:05:16.517Z,2.10
2023-05-23T16:07:46.499Z,2.17
2023-05-23T16:10:16.313Z,2.00
2023-05-23T16:12:46.118Z,2.13
2023-05-23T16:15:15.870Z,1.83
2023-05-23T16:17:45.741Z,1.90
2023-05-23T16:20:15.856Z,1.92
2023-05-23T16:22:47.631Z,2.00
2023-05-23T16:25:17.584Z,1.80
2023-05-23T16:27:47.810Z,1.75
2023-05-23T16:30:17.797Z,1.40
2023-05-23T16:32:47.638Z,2.00
2023-05-23T16:35:17.428Z,1.42
2023-05-23T16:37:47.288Z,1.50
2023-05-23T16:40:19.462Z,1.63
2023-05-23T16:42:49.284Z,1.55
2023-05-23T16:45:19.095Z,1.27
2023-05-23T16:47:48.792Z,1.60
2023-05-23T16:50:18.807Z,1.48
2023-05-23T16:52:48.535Z,1.30
2023-05-23T16:55:18.263Z,1.65
2023-05-23T16:57:48.024Z,1.10
2023-05-23T17:00:18.880Z,1.30
2023-05-23T17:02:49.147Z,1.38
2023-05-23T17:05:19.018Z,1.40
2023-05-23T17:07:48.894Z,1.50
2023-05-23T17:10:20.365Z,1.73
2023-05-23T17:12:50.257Z,1.67
2023-05-23T17:15:19.960Z,2.00
2023-05-23T17:17:50.077Z,2.00
2023-05-23T17:20:20.080Z,1.70
2023-05-23T17:22:50.061Z,1.63
2023-05-23T17:25:40.176Z,1.80
2023-05-23T17:28:11.304Z,2.38
2023-05-23T17:30:45.061Z,1.60
2023-05-23T17:33:14.960Z,1.70
2023-05-23T17:35:44.861Z,1.77
2023-05-23T17:38:14.543Z,1.70
2023-05-23T17:40:44.493Z,1.60
2023-05-23T17:43:15.063Z,1.88
2023-05-23T17:45:44.742Z,2.00
2023-05-23T17:48:17.029Z,2.05
2023-05-23T17:50:47.598Z,2.00
2023-05-23T17:53:17.580Z,1.80
2023-05-23T17:55:47.203Z,1.77
2023-05-23T17:58:17.047Z,1.98
2023-05-23T18:00:46.657Z,2.10
2023-05-23T18:03:16.403Z,2.42
2023-05-23T18:05:46.222Z,2.22
2023-05-23T18:08:15.981Z,1.83
2023-05-23T18:10:49.174Z,2.00
2023-05-23T18:13:19.018Z,2.40
2023-05-23T18:15:48.825Z,2.63
2023-05-23T18:18:19.686Z,2.10
2023-05-23T18:20:49.476Z,2.70
2023-05-23T18:23:19.372Z,2.75
2023-05-23T18:25:49.978Z,2.53
2023-05-23T18:28:20.142Z,2.88
2023-05-23T18:30:50.266Z,2.35
2023-05-23T18:33:20.162Z,3.05
2023-05-23T18:35:50.004Z,2.13
2023-05-23T18:38:19.665Z,3.45
2023-05-23T18:40:49.439Z,2.85
2023-05-23T18:43:19.218Z,3.08
2023-05-23T18:45:48.937Z,2.63
2023-05-23T18:48:18.579Z,2.30
2023-05-23T18:50:48.916Z,2.30
2023-05-23T18:53:18.654Z,2.50
2023-05-23T18:55:48.338Z,2.58
2023-05-23T18:58:18.264Z,2.47
2023-05-23T19:00:48.121Z,2.75
2023-05-23T19:03:19.383Z,2.47
2023-05-23T19:05:49.687Z,1.98
2023-05-23T19:08:19.482Z,2.35
2023-05-23T19:10:49.203Z,2.60
2023-05-23T19:13:20.577Z,2.38
2023-05-23T19:15:52.133Z,2.90
2023-05-23T19:18:22.430Z,2.47
2023-05-23T19:20:56.252Z,2.30
2023-05-23T19:23:26.329Z,2.30
2023-05-23T19:25:56.292Z,2.63
2023-05-23T19:28:26.150Z,2.13
2023-05-23T19:30:55.769Z,2.33
2023-05-23T19:33:25.555Z,2.90
2023-05-23T19:35:55.279Z,2.58
2023-05-23T19:38:25.023Z,2.28
2023-05-23T19:40:54.763Z,2.20
2023-05-23T19:43:24.485Z,2.55
2023-05-23T19:45:54.298Z,2.72
2023-05-23T19:48:23.968Z,2.13
2023-05-23T19:50:53.845Z,2.60
2023-05-23T19:53:24.781Z,2.38
2023-05-23T19:55:54.571Z,2.47
2023-05-23T19:58:24.414Z,2.30
2023-05-23T20:00:54.191Z,2.08
2023-05-23T20:03:24.329Z,2.50
2023-05-23T20:05:54.106Z,2.22
2023-05-23T20:08:23.902Z,2.47
2023-05-23T20:10:53.975Z,2.85
2023-05-23T20:13:23.884Z,2.53
2023-05-23T20:15:53.837Z,2.20
2023-05-23T20:18:24.063Z,2.50
2023-05-23T20:20:54.013Z,2.33
2023-05-23T20:23:24.575Z,2.85
2023-05-23T20:25:54.619Z,2.33
2023-05-23T20:28:24.668Z,2.25
2023-05-23T20:30:54.754Z,2.50
2023-05-23T20:33:24.625Z,2.40
2023-05-23T20:35:55.753Z,2.38
2023-05-23T20:38:26.471Z,2.10
2023-05-23T20:40:56.627Z,2.55
2023-05-23T20:43:26.427Z,3.35
2023-05-23T20:45:56.792Z,2.70
2023-05-23T20:48:26.599Z,2.70
2023-05-23T20:50:56.659Z,2.65
2023-05-23T20:53:26.595Z,2.63
2023-05-23T20:55:56.566Z,2.50
2023-05-23T20:58:26.431Z,3.10
2023-05-23T21:00:56.462Z,2.78
2023-05-23T21:03:26.256Z,2.58
2023-05-23T21:05:56.113Z,2.70
2023-05-23T21:08:25.829Z,2.40
2023-05-23T21:10:55.799Z,2.58
2023-05-23T21:13:25.907Z,2.75
2023-05-23T21:15:55.688Z,3.08
2023-05-23T21:18:25.551Z,2.80
2023-05-23T21:20:55.248Z,2.72
2023-05-23T21:23:25.075Z,3.72
2023-05-23T21:25:55.658Z,3.15
2023-05-23T21:28:25.338Z,3.30
2023-05-23T21:30:55.984Z,3.00
2023-05-23T21:33:25.951Z,3.25
2023-05-23T21:35:56.945Z,4.10
2023-05-23T21:38:27.891Z,3.83
2023-05-23T21:40:57.925Z,3.72
2023-05-23T21:43:27.713Z,3.67
2023-05-23T21:45:57.756Z,3.35
2023-05-23T21:48:27.685Z,3.72
2023-05-23T21:50:57.428Z,3.50
2023-05-23T21:53:27.339Z,3.55
2023-05-23T21:55:57.317Z,2.78
2023-05-23T21:58:26.942Z,3.58
2023-05-23T22:00:56.944Z,3.15
2023-05-23T22:03:26.878Z,3.10
2023-05-23T22:05:56.770Z,2.75
2023-05-23T22:08:26.545Z,3.53
2023-05-23T22:10:56.286Z,2.60
2023-05-23T22:13:26.274Z,2.92
2023-05-23T22:15:56.043Z,2.85
2023-05-23T22:18:30.597Z,2.97
2023-05-23T22:21:05.701Z,2.83
2023-05-23T22:23:35.743Z,3.20
2023-05-23T22:26:06.380Z,3.10
2023-05-23T22:28:37.316Z,3.47
2023-05-23T22:31:07.191Z,3.80
2023-05-23T22:33:37.135Z,3.90
2023-05-23T22:36:07.959Z,3.72
2023-05-23T22:38:39.268Z,4.22
2023-05-23T22:41:09.008Z,4.32
2023-05-23T22:43:39.024Z,4.30
2023-05-23T22:46:09.157Z,3.35
2023-05-23T22:48:39.582Z,3.58
2023-05-23T22:51:11.366Z,3.55
2023-05-23T22:53:41.347Z,3.50
2023-05-23T22:56:11.114Z,4.10
2023-05-23T22:58:41.273Z,3.75
2023-05-23T23:01:11.183Z,3.65
2023-05-23T23:03:41.127Z,3.50
2023-05-23T23:06:11.080Z,4.13
2023-05-23T23:08:41.010Z,3.35
2023-05-23T23:11:10.907Z,3.63
2023-05-23T23:13:40.696Z,6.28
2023-05-23T23:16:10.918Z,13.52
2023-05-23T23:18:40.883Z,10.25
2023-05-23T23:21:10.549Z,6.03
2023-05-23T23:23:40.404Z,4.68
2023-05-23T23:26:10.230Z,5.88
2023-05-23T23:28:40.555Z,5.43
2023-05-23T23:31:10.473Z,4.93
2023-05-23T23:33:40.146Z,4.07
2023-05-23T23:36:09.966Z,4.25
2023-05-23T23:38:39.830Z,4.55
2023-05-23T23:41:09.643Z,4.55
2023-05-23T23:43:39.425Z,4.60
2023-05-23T23:46:09.088Z,4.38
2023-05-23T23:48:38.920Z,4.50
2023-05-23T23:51:08.670Z,4.60
2023-05-23T23:53:38.507Z,4.85
2023-05-23T23:56:08.742Z,4.28
2023-05-23T23:58:39.065Z,4.30
